Time;durP1;ratioP1;P1;durP2;ratioP2;P2;SDS_P1;SDS_P2;PMS_P1;PMS_P2;Temp;Humidity;BMP_temperature;BMP_pressure;BME280_temperature;BME280_humidity;BME280_pressure;Samples;Min_cycle;Max_cycle;Signal;HPM_P1;HPM_P2
2021/04/01 04:59:44;;;;;;;;;;;;;;;4.55;100.00;97960.58;1769694;78;20478;-66
2021/04/01 05:04:56;;;;;;;;;;;;;;;4.66;100.00;97963.09;1725172;80;20530;-69
2021/04/01 05:07:23;;;;;;;;;;;;;;;4.76;100.00;97966.07;1719761;80;20537;-68
2021/04/01 05:09:52;;;;;;;;;;;;;;;4.84;100.00;97962.45;1766146;78;20613;-63
2021/04/01 05:12:21;;;;;;;;;;;;;;;4.86;100.00;97960.46;1760775;77;20475;-67
2021/04/01 05:14:49;;;;;;;;;;;;;;;4.86;100.00;97965.17;1760623;78;22064;-68
2021/04/01 05:17:19;;;;;;;;;;;;;;;4.91;100.00;97965.35;1774458;78;20395;-68
2021/04/01 05:19:48;;;;;;;;;;;;;;;4.98;100.00;97962.73;1760105;78;20870;-70
2021/04/01 05:22:31;;;;;;;;;;;;;;;5.07;100.00;97961.02;1768718;78;20807;-69
2021/04/01 05:24:52;;;;;;;;;;;;;;;5.20;100.00;97960.67;1775718;78;20659;-68
2021/04/01 05:27:24;;;;;;;;;;;;;;;5.29;100.00;97957.64;1761224;77;21931;-64
2021/04/01 05:30:01;;;;;;;;;;;;;;;5.38;100.00;97958.22;1750473;78;20777;-67
2021/04/01 05:32:31;;;;;;;;;;;;;;;5.48;100.00;97956.77;1769976;78;20566;-62
2021/04/01 05:35:01;;;;;;;;;;;;;;;5.62;100.00;97958.03;1764554;78;20519;-66
2021/04/01 05:37:29;;;;;;;;;;;;;;;5.74;100.00;97955.06;1750437;79;20658;-66
2021/04/01 05:39:58;;;;;;;;;;;;;;;5.88;100.00;97950.09;1748305;78;21009;-65
2021/04/01 05:42:28;;;;;;;;;;;;;;;5.99;100.00;97944.19;1762957;78;20927;-69
2021/04/01 05:45:04;;;;;;;;;;;;;;;6.10;100.00;97942.73;1756519;78;20617;-69
2021/04/01 05:47:37;;;;;;;;;;;;;;;6.21;100.00;97943.34;1750482;78;20606;-69
2021/04/01 06:06:53;;;;;;;;;;;;;;;7.39;100.00;97925.73;1637963;84;21889;-68
2021/04/01 06:09:23;;;;;;;;;;;;;;;7.53;100.00;97929.79;1637867;84;20417;-73
2021/04/01 06:11:55;;;;;;;;;;;;;;;7.69;100.00;97925.27;1637926;83;20700;-72
2021/04/01 06:14:36;;;;;;;;;;;;;;;7.84;100.00;97918.31;1712253;81;20257;-73
2021/04/01 06:17:06;;;;;;;;;;;;;;;8.01;100.00;97920.56;1692371;81;20619;-70
2021/04/01 06:19:35;;;;;;;;;;;;;;;8.20;100.00;97920.00;1698041;80;21811;-70
2021/04/01 06:22:05;;;;;;;;;;;;;;;8.37;100.00;97922.77;1708665;81;21412;-68
2021/04/01 06:24:34;;;;;;;;;;;;;;;8.53;100.00;97908.50;1713996;81;20210;-68
2021/04/01 06:27:50;;;;;;;;;;;;;;;8.70;100.00;97909.94;1711077;80;20480;-71
2021/04/01 06:29:38;;;;;;;;;;;;;;;8.85;100.00;97909.47;1690874;81;20894;-69
2021/04/01 06:32:24;;;;;;;;;;;;;;;9.01;100.00;97913.48;1706755;81;20766;-72
2021/04/01 06:34:49;;;;;;;;;;;;;;;9.15;100.00;97903.53;1719672;80;20961;-74
2021/04/01 06:40:10;;;;;;;;;;;;;;;9.38;99.43;97898.23;1721502;80;20341;-72
2021/04/01 06:42:57;;;;;;;;;;;;;;;9.50;98.86;97894.28;1722689;79;20661;-72
2021/04/01 06:45:25;;;;;;;;;;;;;;;9.59;98.17;97895.98;1743995;79;21919;-70
2021/04/01 06:47:55;;;;;;;;;;;;;;;9.69;97.52;97891.73;1742798;79;20482;-69
2021/04/01 06:50:28;;;;;;;;;;;;;;;9.78;97.36;97888.22;1766496;78;20381;-72
2021/04/01 06:53:02;;;;;;;;;;;;;;;9.89;98.01;97894.42;1767592;78;20424;-68
2021/04/01 06:55:38;;;;;;;;;;;;;;;10.01;98.62;97886.76;1750123;79;20570;-68
2021/04/01 06:58:14;;;;;;;;;;;;;;;10.18;99.16;97882.87;1766324;78;20793;-69
2021/04/01 07:00:45;;;;;;;;;;;;;;;10.34;98.60;97879.97;1755532;78;20236;-68
2021/04/01 07:05:47;;;;;;;;;;;;;;;10.66;98.41;97877.02;1765965;77;20652;-72
2021/04/01 07:08:12;;;;;;;;;;;;;;;10.81;97.27;97880.38;1753435;79;20562;-67
2021/04/01 07:10:49;;;;;;;;;;;;;;;10.95;95.93;97866.63;1764757;79;20871;-68
2021/04/01 07:13:18;;;;;;;;;;;;;;;11.11;96.18;97868.14;1747008;79;20578;-69
2021/04/01 07:15:50;;;;;;;;;;;;;;;11.27;95.48;97867.28;1761040;78;20513;-67
2021/04/01 07:21:05;;;;;;;;;;;;;;;11.61;94.51;97860.80;1760805;78;20495;-66
2021/04/01 07:34:46;;;;;;;;;;;;;;;12.22;90.80;97845.57;1768366;77;20639;-65
2021/04/01 07:48:44;;;;;;;;;;;;;;;12.81;86.48;97834.86;1733762;79;20716;-67
2021/04/01 07:51:33;;;;;;;;;;;;;;;12.95;85.57;97828.59;1726580;79;21845;-63
2021/04/01 07:53:52;;;;;;;;;;;;;;;13.11;85.33;97823.09;1741449;79;20411;-66
2021/04/01 07:56:26;;;;;;;;;;;;;;;13.27;83.64;97823.97;1745396;79;20405;-70
2021/04/01 07:59:05;;;;;;;;;;;;;;;13.40;80.94;97821.39;1756501;79;20557;-64
2021/04/01 08:04:03;;;;;;;;;;;;;;;13.54;75.53;97813.23;1693417;81;21969;-66
2021/04/01 08:06:35;;;;;;;;;;;;;;;13.58;74.47;97810.32;1694242;82;20673;-68
2021/04/01 08:09:10;;;;;;;;;;;;;;;13.64;73.80;97802.66;1728980;80;20524;-66
2021/04/01 08:11:44;;;;;;;;;;;;;;;13.74;72.64;97802.69;1714650;80;20554;-67
2021/04/01 08:14:18;;;;;;;;;;;;;;;13.88;71.84;97802.95;1690805;81;20418;-70
2021/04/01 08:16:55;;;;;;;;;;;;;;;14.04;70.59;97799.26;1686668;82;20702;-67
2021/04/01 08:19:23;;;;;;;;;;;;;;;14.21;68.37;97798.42;1693503;81;20534;-67
2021/04/01 08:21:53;;;;;;;;;;;;;;;14.34;67.86;97792.58;1698888;82;20137;-71
2021/04/01 08:24:32;;;;;;;;;;;;;;;14.48;66.27;97789.44;1690263;81;20574;-65
2021/04/01 08:27:44;;;;;;;;;;;;;;;14.64;64.21;97790.42;1684342;82;20725;-69
2021/04/01 08:34:54;;;;;;;;;;;;;;;15.13;63.39;97773.81;1700955;81;20560;-70
2021/04/01 08:37:25;;;;;;;;;;;;;;;15.36;62.59;97770.50;1738991;80;20749;-68
2021/04/01 08:39:55;;;;;;;;;;;;;;;15.55;59.95;97768.84;1739031;80;20643;-68
2021/04/01 08:42:55;;;;;;;;;;;;;;;15.69;58.70;97766.34;1743996;79;22127;-65
2021/04/01 08:45:38;;;;;;;;;;;;;;;15.79;58.79;97753.53;1726465;80;20681;-68
2021/04/01 08:48:24;;;;;;;;;;;;;;;15.84;58.59;97755.63;1723031;81;20210;-68
2021/04/01 08:51:27;;;;;;;;;;;;;;;15.87;58.11;97749.75;1735260;80;20549;-70
2021/04/01 08:54:09;;;;;;;;;;;;;;;15.87;57.70;97746.31;1745585;80;20893;-69
2021/04/01 08:56:47;;;;;;;;;;;;;;;15.84;55.83;97746.89;1751946;80;21887;-70
2021/04/01 08:59:30;;;;;;;;;;;;;;;15.77;55.58;97738.47;1749336;80;20508;-68
2021/04/01 09:01:59;;;;;;;;;;;;;;;15.76;55.61;97738.20;1741770;80;20449;-68
2021/04/01 09:04:33;;;;;;;;;;;;;;;15.78;55.50;97734.72;1730216;80;20509;-68
2021/04/01 09:07:03;;;;;;;;;;;;;;;15.83;55.30;97733.38;1728765;80;20657;-68
2021/04/01 09:09:35;;;;;;;;;;;;;;;15.86;55.68;97726.97;1746942;80;22225;-65
2021/04/01 09:12:25;;;;;;;;;;;;;;;15.93;55.44;97726.64;1743013;80;20541;-66
2021/04/01 09:14:58;;;;;;;;;;;;;;;16.01;55.17;97726.03;1734251;80;20531;-65
2021/04/01 09:17:37;;;;;;;;;;;;;;;16.07;54.46;97720.94;1745792;81;20630;-64
2021/04/01 09:20:14;;;;;;;;;;;;;;;16.08;54.28;97713.24;1734763;80;20468;-66
2021/04/01 09:22:44;;;;;;;;;;;;;;;16.11;53.96;97712.69;1751300;79;21784;-68
2021/04/01 09:25:12;;;;;;;;;;;;;;;16.16;54.12;97709.98;1745905;80;20411;-64
2021/04/01 09:27:52;;;;;;;;;;;;;;;16.24;53.21;97709.37;1732935;80;20512;-65
2021/04/01 09:30:23;;;;;;;;;;;;;;;16.34;53.42;97704.50;1722803;80;20276;-71
2021/04/01 09:32:53;;;;;;;;;;;;;;;16.48;51.17;97699.30;1752596;80;20480;-65
2021/04/01 09:35:21;;;;;;;;;;;;;;;16.56;50.65;97694.69;1700770;81;22103;-65
2021/04/01 09:37:54;;;;;;;;;;;;;;;16.60;50.76;97691.20;1693331;82;20574;-68
2021/04/01 09:40:34;;;;;;;;;;;;;;;16.65;50.92;97685.03;1724349;80;20479;-64
2021/04/01 09:43:19;;;;;;;;;;;;;;;16.72;50.68;97688.12;1669474;83;20492;-65
2021/04/01 09:45:48;;;;;;;;;;;;;;;16.81;50.31;97685.63;1711031;81;20866;-64
2021/04/01 09:48:17;;;;;;;;;;;;;;;16.88;46.68;97672.79;1698070;82;21985;-66
2021/04/01 09:50:47;;;;;;;;;;;;;;;16.97;46.92;97666.56;1734357;80;20239;-64
2021/04/01 09:53:20;;;;;;;;;;;;;;;17.07;45.63;97666.95;1722084;80;20490;-66
2021/04/01 09:55:50;;;;;;;;;;;;;;;17.12;45.04;97660.23;1752094;79;20204;-67
2021/04/01 09:58:25;;;;;;;;;;;;;;;17.13;45.96;97654.64;1757724;79;21007;-66
2021/04/01 10:03:49;;;;;;;;;;;;;;;17.07;43.59;97648.38;1702548;81;20848;-62
2021/04/01 10:06:43;;;;;;;;;;;;;;;17.04;44.71;97648.41;1681445;81;20571;-62
2021/04/01 10:09:15;;;;;;;;;;;;;;;17.09;44.50;97640.34;1705948;80;20390;-68
2021/04/01 10:11:44;;;;;;;;;;;;;;;17.16;44.25;97638.11;1700557;81;20608;-66
2021/04/01 10:14:12;;;;;;;;;;;;;;;17.21;44.44;97634.61;1702977;80;22022;-67
2021/04/01 10:16:51;;;;;;;;;;;;;;;17.27;44.71;97627.34;1702914;81;20483;-69
2021/04/01 10:19:23;;;;;;;;;;;;;;;17.30;43.57;97628.07;1680370;81;34171;-66
2021/04/01 10:21:52;;;;;;;;;;;;;;;17.33;44.08;97630.95;1698708;80;20379;-63
2021/04/01 10:24:26;;;;;;;;;;;;;;;17.38;44.22;97621.56;1703781;81;21825;-72
2021/04/01 10:27:19;;;;;;;;;;;;;;;17.46;42.62;97614.25;1692997;82;21482;-66
2021/04/01 10:29:39;;;;;;;;;;;;;;;17.56;41.44;97610.64;1696469;81;20561;-69
2021/04/01 10:31:57;;;;;;;;;;;;;;;17.63;42.37;97608.42;1701785;81;20417;-66
2021/04/01 10:34:35;;;;;;;;;;;;;;;17.71;41.50;97602.97;1688811;81;20468;-68
2021/04/01 10:37:07;;;;;;;;;;;;;;;17.80;40.49;97599.84;1725749;80;20628;-68
2021/04/01 10:39:37;;;;;;;;;;;;;;;17.89;40.57;97588.25;1703077;82;20791;-68
2021/04/01 10:42:07;;;;;;;;;;;;;;;17.98;39.74;97584.36;1730932;79;20498;-72
2021/04/01 10:44:35;;;;;;;;;;;;;;;18.06;41.67;97577.02;1741254;80;20409;-65
2021/04/01 10:47:04;;;;;;;;;;;;;;;18.16;42.19;97574.14;1737521;80;20596;-68
2021/04/01 10:49:35;;;;;;;;;;;;;;;18.24;42.59;97573.98;1736758;80;20603;-65
2021/04/01 10:52:11;;;;;;;;;;;;;;;18.27;42.31;97565.42;1763470;79;21893;-66
2021/04/01 10:54:43;;;;;;;;;;;;;;;18.29;41.33;97560.05;1701434;80;20163;-68
2021/04/01 10:57:29;;;;;;;;;;;;;;;18.33;39.40;97556.23;1751742;80;20391;-71
2021/04/01 11:00:01;;;;;;;;;;;;;;;18.36;38.12;97550.33;1741223;80;20641;-64
2021/04/01 11:02:34;;;;;;;;;;;;;;;18.43;37.79;97556.03;1692252;82;20797;-71
2021/04/01 11:05:19;;;;;;;;;;;;;;;18.53;35.74;97549.13;1711519;79;21936;-67
2021/04/01 11:07:49;;;;;;;;;;;;;;;18.58;36.62;97549.06;1754535;77;20462;-68
2021/04/01 11:10:25;;;;;;;;;;;;;;;18.64;36.44;97533.22;1771420;78;20525;-65
2021/04/01 11:13:12;;;;;;;;;;;;;;;18.69;36.52;97530.43;1773263;77;20534;-64
2021/04/01 11:15:41;;;;;;;;;;;;;;;18.77;36.31;97525.47;1766585;77;20613;-63
2021/04/01 11:18:12;;;;;;;;;;;;;;;18.84;36.28;97533.28;1768771;77;23655;-71
2021/04/01 11:20:42;;;;;;;;;;;;;;;18.90;35.86;97525.41;1757178;78;20665;-67
2021/04/01 11:23:18;;;;;;;;;;;;;;;18.97;36.73;97527.09;1766234;78;20598;-69
2021/04/01 11:25:49;;;;;;;;;;;;;;;19.05;36.31;97522.37;1770890;78;20541;-67
2021/04/01 11:28:16;;;;;;;;;;;;;;;19.08;36.82;97515.11;1782585;77;20493;-65
2021/04/01 11:30:54;;;;;;;;;;;;;;;19.15;38.55;97514.67;1760632;78;21918;-66
2021/04/01 11:33:22;;;;;;;;;;;;;;;19.22;37.99;97511.03;1766289;77;20508;-63
2021/04/01 11:36:08;;;;;;;;;;;;;;;19.25;38.06;97514.39;1756670;79;20510;-71
2021/04/01 11:38:40;;;;;;;;;;;;;;;19.27;38.28;97507.44;1752991;78;20410;-69
2021/04/01 11:41:07;;;;;;;;;;;;;;;19.29;38.80;97506.05;1737532;80;20365;-68
2021/04/01 11:43:35;;;;;;;;;;;;;;;19.34;38.78;97495.24;1715871;80;22040;-69
2021/04/01 11:46:15;;;;;;;;;;;;;;;19.43;37.96;97490.74;1721513;80;20379;-67
2021/04/01 11:48:43;;;;;;;;;;;;;;;19.47;37.96;97487.72;1728049;80;20601;-70
2021/04/01 11:51:14;;;;;;;;;;;;;;;19.50;38.19;97488.99;1728038;80;20498;-72
2021/04/01 11:53:42;;;;;;;;;;;;;;;19.55;38.85;97484.84;1722165;80;20504;-69
2021/04/01 11:56:10;;;;;;;;;;;;;;;19.58;39.19;97485.58;1731599;79;21820;-66
2021/04/01 11:58:38;;;;;;;;;;;;;;;19.57;39.15;97481.88;1715984;81;20792;-67
2021/04/01 12:01:13;;;;;;;;;;;;;;;19.52;38.75;97476.15;1752685;79;20565;-66
2021/04/01 12:03:50;;;;;;;;;;;;;;;19.44;39.06;97472.33;1748871;80;20603;-69
2021/04/01 12:06:10;;;;;;;;;;;;;;;19.41;38.88;97468.15;1783416;78;21028;-66
2021/04/01 12:08:39;;;;;;;;;;;;;;;19.41;39.30;97463.61;1770890;78;21834;-65
2021/04/01 12:11:07;;;;;;;;;;;;;;;19.46;39.28;97456.83;1792477;78;20487;-66
2021/04/01 12:13:38;;;;;;;;;;;;;;;19.56;40.16;97451.77;1776583;77;20230;-69
2021/04/01 12:16:19;;;;;;;;;;;;;;;19.67;40.62;97448.25;1791160;78;20485;-64
2021/04/01 12:18:48;;;;;;;;;;;;;;;19.78;41.01;97439.66;1778426;78;20780;-66
2021/04/01 12:21:16;;;;;;;;;;;;;;;19.92;40.51;97445.41;1776545;78;21789;-65
2021/04/01 12:23:53;;;;;;;;;;;;;;;20.00;39.87;97437.96;1779624;78;20471;-65
2021/04/01 12:26:21;;;;;;;;;;;;;;;20.07;39.92;97436.41;1756611;78;20399;-66
2021/04/01 12:29:00;;;;;;;;;;;;;;;20.11;39.45;97432.00;1764744;78;20508;-72
2021/04/01 12:31:32;;;;;;;;;;;;;;;20.13;39.38;97427.69;1768950;78;20775;-66
2021/04/01 12:34:01;;;;;;;;;;;;;;;20.17;39.69;97421.97;1772096;78;22069;-66
2021/04/01 12:36:34;;;;;;;;;;;;;;;20.17;39.01;97412.05;1776113;78;20661;-64
2021/04/01 12:39:07;;;;;;;;;;;;;;;20.20;39.86;97413.32;1776846;77;20111;-69
2021/04/01 12:41:38;;;;;;;;;;;;;;;20.24;39.35;97403.61;1776981;78;20399;-69
2021/04/01 12:44:06;;;;;;;;;;;;;;;20.28;39.84;97397.31;1787137;78;20585;-67
2021/04/01 12:46:45;;;;;;;;;;;;;;;20.36;39.83;97396.31;1770285;77;21889;-66
2021/04/01 12:49:20;;;;;;;;;;;;;;;20.41;38.64;97394.80;1759319;78;20503;-68
2021/04/01 12:51:47;;;;;;;;;;;;;;;20.31;38.61;97385.78;1769431;78;20123;-69
2021/04/01 12:54:19;;;;;;;;;;;;;;;20.17;38.73;97387.28;1756540;78;20351;-69
2021/04/01 12:56:56;;;;;;;;;;;;;;;20.07;38.88;97380.92;1765310;78;20754;-69
2021/04/01 12:59:41;;;;;;;;;;;;;;;20.05;39.32;97381.23;1671998;82;27788;-66
2021/04/01 13:04:32;;;;;;;;;;;;;;;20.24;40.05;97371.00;1668638;84;20636;-66
2021/04/01 13:09:51;;;;;;;;;;;;;;;20.38;38.82;97368.77;1647106;83;20631;-68
2021/04/01 13:12:23;;;;;;;;;;;;;;;20.30;38.93;97354.84;1660379;83;21870;-70
2021/04/01 13:14:51;;;;;;;;;;;;;;;20.18;39.05;97348.80;1677975;83;21664;-68
2021/04/01 13:17:21;;;;;;;;;;;;;;;20.10;39.58;97349.63;1670528;83;20471;-63
2021/04/01 13:19:48;;;;;;;;;;;;;;;20.02;39.09;97344.53;1652334;84;20406;-66
2021/04/01 13:22:28;;;;;;;;;;;;;;;19.94;39.69;97342.65;1680918;83;20490;-63
2021/04/01 13:27:24;;;;;;;;;;;;;;;19.83;41.14;97338.72;1655161;84;20602;-65
2021/04/01 13:29:59;;;;;;;;;;;;;;;19.77;41.49;97342.09;1666504;83;20569;-66
2021/04/01 13:34:58;;;;;;;;;;;;;;;19.68;42.06;97331.19;1660754;82;20815;-69
2021/04/01 13:37:29;;;;;;;;;;;;;;;19.61;42.13;97326.32;1650536;84;21964;-66
2021/04/01 13:39:59;;;;;;;;;;;;;;;19.52;42.12;97324.77;1667050;84;20592;-70
2021/04/01 13:42:28;;;;;;;;;;;;;;;19.40;42.59;97327.45;1655156;84;20472;-67
2021/04/01 13:45:09;;;;;;;;;;;;;;;19.32;42.86;97324.77;1643130;84;20557;-68
2021/04/01 13:47:37;;;;;;;;;;;;;;;19.23;42.99;97322.11;1645366;84;20646;-65
2021/04/01 13:50:06;;;;;;;;;;;;;;;19.14;43.37;97317.30;1646346;84;21840;-69
2021/04/01 14:00:48;;;;;;;;;;;;;;;18.88;43.44;97317.22;1631896;85;20327;-70
